»·PEaware :: VTE250 KSLC-KLAS

VTE250 :: KSLC-KLAS

FLIGHT INFORMATION

Flight Status: Arrived
Operator: Unknown
More flights by this operator :: More flights under this callsign
Pilot: Anonymous 13363 (13363)
Aircraft: AIRBUS A320
(A320)
More flights by this aircraft type
Origin: KSLC Salt Lake City Intl
United States
Destination: KLAS McCarran Intl
United States
More flights between these airports :: More routes between these airports
Route: EDETH5 MLF MPIRE SITEE2
File this flight plan on PilotEdge
Remarks:
Altitude:
(Current/Filed)
38,000ft
Speed:
(Current/Filed)
460kts
Departed: 04-Dec-17 06:42 PM
Arrived: 04-Dec-17 07:39 PM
Distance/Time
Traveled:
319nm/0:57
Distance/Time
To Go:
Arrived

Flight Plot

Page will automatically refresh every two minutes.

Flight plan parsing failed; only flown route is shown


Map Options




Map Legend


Flown Route
Filed Route
Departure Airport
Arrival Airport
Navaid (VOR, NDB)
Fix

Horizontal Profiles

Position Reports

Time Latitude Longitude Heading Altitude Ground
Speed
04-Dec-17 18:27 40.777251 -111.958931 178 4236ft 0kts
04-Dec-17 18:28 40.777251 -111.958931 178 4236ft 0kts
04-Dec-17 18:29 40.777251 -111.958931 178 4236ft 0kts
04-Dec-17 18:30 40.777251 -111.958931 178 4236ft 0kts
04-Dec-17 18:31 40.777251 -111.958931 178 4236ft 0kts
04-Dec-17 18:32 40.777251 -111.958931 178 4236ft 0kts
04-Dec-17 18:33 40.777251 -111.958931 178 4236ft 0kts
04-Dec-17 18:34 40.777251 -111.958931 178 4236ft 0kts
04-Dec-17 18:35 40.777251 -111.958931 178 4236ft 0kts
04-Dec-17 18:36 40.777251 -111.958931 178 4236ft 0kts
04-Dec-17 18:37 40.777251 -111.958931 178 4236ft 0kts
04-Dec-17 18:38 40.777251 -111.958931 178 4236ft 0kts
04-Dec-17 18:39 40.777251 -111.958931 178 4236ft 0kts
04-Dec-17 18:40 40.777251 -111.958931 178 4236ft 0kts
04-Dec-17 18:41 40.777074 -111.958936 197 4236ft 1kts
04-Dec-17 18:42 40.776118 -111.960576 222 4236ft 11kts
04-Dec-17 18:43 40.773770 -111.960630 179 4236ft 0kts
04-Dec-17 18:44 40.773769 -111.960630 179 4236ft 0kts
04-Dec-17 18:45 40.773769 -111.960630 179 4236ft 0kts
04-Dec-17 18:46 40.773162 -111.960628 180 4236ft 4kts
04-Dec-17 18:47 40.774551 -111.962051 1 4236ft 49kts
04-Dec-17 18:48 40.820145 -111.961552 1 6329ft 205kts
04-Dec-17 18:49 40.853090 -112.009385 262 10180ft 217kts
04-Dec-17 18:50 40.836382 -112.089054 255 13341ft 261kts
04-Dec-17 18:51 40.815203 -112.191942 260 15436ft 304kts
04-Dec-17 18:52 40.756351 -112.271359 206 17382ft 338kts
04-Dec-17 18:53 40.661129 -112.296169 189 19708ft 362kts
04-Dec-17 18:54 40.562392 -112.312279 191 22295ft 385kts
04-Dec-17 18:55 40.453687 -112.335057 191 23984ft 418kts
04-Dec-17 18:56 40.333264 -112.363443 204 25100ft 460kts
04-Dec-17 18:57 40.216572 -112.443710 212 26131ft 488kts
04-Dec-17 18:58 40.095781 -112.528776 212 27629ft 500kts
04-Dec-17 18:59 39.973166 -112.614867 212 28963ft 511kts
04-Dec-17 19:00 39.849624 -112.701234 212 30415ft 513kts
04-Dec-17 19:01 39.726968 -112.786549 213 32838ft 488kts
04-Dec-17 19:02 39.597504 -112.831728 190 34667ft 489kts
04-Dec-17 19:03 39.463647 -112.851468 191 36018ft 484kts
04-Dec-17 19:04 39.331191 -112.871152 191 37270ft 478kts
04-Dec-17 19:05 39.200404 -112.890531 192 38282ft 474kts
04-Dec-17 19:06 39.070699 -112.909667 192 38412ft 470kts
04-Dec-17 19:07 38.940922 -112.928758 192 38416ft 470kts
04-Dec-17 19:08 38.812897 -112.947501 192 38412ft 470kts
04-Dec-17 19:09 38.684069 -112.966299 193 38351ft 470kts
04-Dec-17 19:10 38.554468 -112.985140 193 38361ft 470kts
04-Dec-17 19:11 38.425305 -113.003863 193 38363ft 470kts
04-Dec-17 19:12 38.303561 -113.048189 213 38378ft 450kts
04-Dec-17 19:13 38.191220 -113.117268 213 38373ft 449kts
04-Dec-17 19:14 38.079672 -113.185561 213 38383ft 448kts
04-Dec-17 19:15 37.968331 -113.253508 213 38357ft 447kts
04-Dec-17 19:16 37.857783 -113.320740 213 38329ft 446kts
04-Dec-17 19:17 37.746993 -113.387897 213 38335ft 445kts
04-Dec-17 19:18 37.635342 -113.455350 213 38335ft 444kts
04-Dec-17 19:19 37.524273 -113.522226 213 38340ft 444kts
04-Dec-17 19:20 37.413554 -113.588674 213 38339ft 443kts
04-Dec-17 19:21 37.305445 -113.653343 213 38282ft 442kts
04-Dec-17 19:22 37.196034 -113.718564 213 37445ft 442kts
04-Dec-17 19:23 37.084509 -113.784869 213 34473ft 449kts
04-Dec-17 19:24 36.970315 -113.852557 213 31055ft 467kts
04-Dec-17 19:25 36.852005 -113.922385 213 27559ft 478kts
04-Dec-17 19:26 36.732275 -113.992771 212 24109ft 478kts
04-Dec-17 19:27 36.622406 -114.057120 213 21083ft 467kts
04-Dec-17 19:28 36.537919 -114.158294 245 17988ft 409kts
04-Dec-17 19:29 36.478255 -114.274999 244 14594ft 396kts
04-Dec-17 19:30 36.423316 -114.381958 244 13318ft 339kts
04-Dec-17 19:31 36.376818 -114.472119 244 11955ft 290kts
04-Dec-17 19:32 36.334929 -114.553700 244 10897ft 279kts
04-Dec-17 19:33 36.290353 -114.631987 217 9880ft 286kts
04-Dec-17 19:34 36.216466 -114.665896 198 8317ft 287kts
04-Dec-17 19:35 36.145076 -114.696521 198 8026ft 248kts
04-Dec-17 19:36 36.081610 -114.725459 218 8009ft 243kts
04-Dec-17 19:37 36.072313 -114.802728 272 7550ft 238kts
04-Dec-17 19:38 36.073280 -114.876714 275 6879ft 224kts
04-Dec-17 19:39 36.074001 -114.953578 272 5108ft 233kts
04-Dec-17 19:40 36.073813 -115.032234 273 3597ft 219kts
04-Dec-17 19:41 36.073594 -115.091824 276 2672ft 136kts
04-Dec-17 19:42 36.073727 -115.134745 270 2121ft 109kts
04-Dec-17 19:43 36.073595 -115.155477 273 2120ft 45kts
04-Dec-17 19:44 36.076044 -115.161264 359 2120ft 10kts
04-Dec-17 19:45 36.078043 -115.161659 269 2120ft 7kts
04-Dec-17 19:46 36.078008 -115.166205 268 2120ft 15kts
04-Dec-17 19:47 36.078009 -115.167186 271 2120ft 3kts
04-Dec-17 19:48 36.078046 -115.170286 273 2120ft 14kts
04-Dec-17 19:49 36.081132 -115.169443 26 2120ft 18kts
04-Dec-17 19:50 36.087037 -115.166049 25 2120ft 25kts
04-Dec-17 19:51 36.092313 -115.163015 26 2120ft 25kts

Navigation Log

Ident Type
Flight plan parsing failed, navigation log unavailable